sensor_id;sensor_type;location;lat;lon;timestamp;pressure;altitude;pressure_sealevel;temperature;humidity
48872;BME280;36154;51.674;7.824;2023-07-24T00:02:05;99776.94;;;23.89;54.26
48872;BME280;36154;51.674;7.824;2023-07-24T00:04:31;99782.16;;;23.89;54.47
48872;BME280;36154;51.674;7.824;2023-07-24T00:06:56;99781.22;;;23.90;54.10
48872;BME280;36154;51.674;7.824;2023-07-24T00:09:22;99768.19;;;23.90;54.01
48872;BME280;36154;51.674;7.824;2023-07-24T00:11:47;99768.19;;;23.90;54.00
48872;BME280;36154;51.674;7.824;2023-07-24T00:14:12;99768.19;;;23.90;54.42
48872;BME280;36154;51.674;7.824;2023-07-24T00:16:38;99768.19;;;23.90;54.21
48872;BME280;36154;51.674;7.824;2023-07-24T00:19:03;99761.34;;;23.89;54.44
48872;BME280;36154;51.674;7.824;2023-07-24T00:21:28;99755.31;;;23.89;54.09
48872;BME280;36154;51.674;7.824;2023-07-24T00:23:54;99757.91;;;23.89;54.16
48872;BME280;36154;51.674;7.824;2023-07-24T00:26:19;99750.09;;;23.89;54.37
48872;BME280;36154;51.674;7.824;2023-07-24T00:28:44;99743.13;;;23.89;53.88
48872;BME280;36154;51.674;7.824;2023-07-24T00:31:10;99750.94;;;23.89;54.12
48872;BME280;36154;51.674;7.824;2023-07-24T00:33:35;99749.25;;;23.88;53.84
48872;BME280;36154;51.674;7.824;2023-07-24T00:36:00;99750.09;;;23.89;53.88
48872;BME280;36154;51.674;7.824;2023-07-24T00:38:25;99745.72;;;23.89;53.99
48872;BME280;36154;51.674;7.824;2023-07-24T00:40:53;99744.78;;;23.90;54.15
48872;BME280;36154;51.674;7.824;2023-07-24T00:43:18;99745.66;;;23.91;54.03
48872;BME280;36154;51.674;7.824;2023-07-24T00:45:45;99743.88;;;23.91;53.97
48872;BME280;36154;51.674;7.824;2023-07-24T00:48:12;99738.66;;;23.91;53.81
48872;BME280;36154;51.674;7.824;2023-07-24T00:50:37;99732.72;;;23.89;53.75
48872;BME280;36154;51.674;7.824;2023-07-24T00:53:04;99731.78;;;23.90;53.73
48872;BME280;36154;51.674;7.824;2023-07-24T00:55:29;99725.75;;;23.90;53.76
48872;BME280;36154;51.674;7.824;2023-07-24T00:57:57;99714.50;;;23.89;54.03
48872;BME280;36154;51.674;7.824;2023-07-24T01:00:23;99709.31;;;23.89;53.94
48872;BME280;36154;51.674;7.824;2023-07-24T01:02:48;99714.50;;;23.89;53.82
48872;BME280;36154;51.674;7.824;2023-07-24T01:05:14;99720.53;;;23.90;53.61
48872;BME280;36154;51.674;7.824;2023-07-24T01:07:40;99716.16;;;23.90;53.52
48872;BME280;36154;51.674;7.824;2023-07-24T01:10:05;99719.72;;;23.89;53.56
48872;BME280;36154;51.674;7.824;2023-07-24T01:12:45;99716.16;;;23.90;54.04
48872;BME280;36154;51.674;7.824;2023-07-24T01:15:28;99715.44;;;23.88;53.67
48872;BME280;36154;51.674;7.824;2023-07-24T01:18:00;99712.75;;;23.90;53.50
48872;BME280;36154;51.674;7.824;2023-07-24T01:20:27;99710.97;;;23.90;53.61
48872;BME280;36154;51.674;7.824;2023-07-24T01:25:57;99697.13;;;23.90;53.51
48872;BME280;36154;51.674;7.824;2023-07-24T01:28:24;99705.75;;;23.90;53.38
48872;BME280;36154;51.674;7.824;2023-07-24T01:30:49;99713.47;;;23.92;53.73
48872;BME280;36154;51.674;7.824;2023-07-24T01:33:15;99710.06;;;23.91;53.50
48872;BME280;36154;51.674;7.824;2023-07-24T01:35:42;99703.06;;;23.92;53.67
48872;BME280;36154;51.674;7.824;2023-07-24T01:38:10;99701.34;;;23.92;53.30
48872;BME280;36154;51.674;7.824;2023-07-24T01:40:35;99707.44;;;23.91;53.35
48872;BME280;36154;51.674;7.824;2023-07-24T01:43:01;99708.28;;;23.92;53.51
48872;BME280;36154;51.674;7.824;2023-07-24T01:45:26;99700.56;;;23.90;53.75
48872;BME280;36154;51.674;7.824;2023-07-24T01:47:52;99695.34;;;23.90;53.63
48872;BME280;36154;51.674;7.824;2023-07-24T01:50:17;99688.41;;;23.91;53.70
48872;BME280;36154;51.674;7.824;2023-07-24T01:52:42;99686.63;;;23.91;53.78
48872;BME280;36154;51.674;7.824;2023-07-24T01:55:09;99682.25;;;23.92;53.39
48872;BME280;36154;51.674;7.824;2023-07-24T01:57:34;99677.06;;;23.92;53.78
48872;BME280;36154;51.674;7.824;2023-07-24T02:00:00;99675.31;;;23.92;53.24
48872;BME280;36154;51.674;7.824;2023-07-24T02:02:25;99665.81;;;23.91;53.51
48872;BME280;36154;51.674;7.824;2023-07-24T02:04:50;99670.19;;;23.91;53.63
48872;BME280;36154;51.674;7.824;2023-07-24T02:07:16;99664.13;;;23.90;53.59
48872;BME280;36154;51.674;7.824;2023-07-24T02:09:41;99664.13;;;23.90;53.63
48872;BME280;36154;51.674;7.824;2023-07-24T02:12:06;99658.94;;;23.90;53.51
48872;BME280;36154;51.674;7.824;2023-07-24T02:14:31;99652.81;;;23.91;53.58
48872;BME280;36154;51.674;7.824;2023-07-24T02:16:57;99660.63;;;23.91;53.21
48872;BME280;36154;51.674;7.824;2023-07-24T02:19:22;99658.94;;;23.90;53.08
48872;BME280;36154;51.674;7.824;2023-07-24T02:21:47;99658.94;;;23.90;53.33
48872;BME280;36154;51.674;7.824;2023-07-24T02:24:13;99648.53;;;23.90;53.08
48872;BME280;36154;51.674;7.824;2023-07-24T02:26:38;99643.31;;;23.90;53.44
48872;BME280;36154;51.674;7.824;2023-07-24T02:29:03;99631.28;;;23.89;52.98
48872;BME280;36154;51.674;7.824;2023-07-24T02:31:29;99627.84;;;23.89;53.34
48872;BME280;36154;51.674;7.824;2023-07-24T02:33:54;99631.28;;;23.89;53.09
48872;BME280;36154;51.674;7.824;2023-07-24T02:36:19;99627.72;;;23.90;53.11
48872;BME280;36154;51.674;7.824;2023-07-24T02:38:45;99630.53;;;23.87;52.87
48872;BME280;36154;51.674;7.824;2023-07-24T02:41:10;99635.63;;;23.89;52.87
48872;BME280;36154;51.674;7.824;2023-07-24T02:43:35;99628.09;;;23.84;53.21
48872;BME280;36154;51.674;7.824;2023-07-24T02:46:01;99633.13;;;23.87;53.08
48872;BME280;36154;51.674;7.824;2023-07-24T02:48:27;99633.97;;;23.88;52.73
48872;BME280;36154;51.674;7.824;2023-07-24T02:50:52;99626.16;;;23.88;52.68
48872;BME280;36154;51.674;7.824;2023-07-24T02:53:18;99623.56;;;23.88;52.87
48872;BME280;36154;51.674;7.824;2023-07-24T02:55:43;99633.13;;;23.87;52.68
48872;BME280;36154;51.674;7.824;2023-07-24T02:58:10;99623.63;;;23.86;52.71
48872;BME280;36154;51.674;7.824;2023-07-24T03:00:35;99631.34;;;23.88;52.60
48872;BME280;36154;51.674;7.824;2023-07-24T03:03:00;99631.28;;;23.89;52.65
48872;BME280;36154;51.674;7.824;2023-07-24T03:05:26;99629.56;;;23.88;52.51
48872;BME280;36154;51.674;7.824;2023-07-24T03:07:51;99617.53;;;23.87;52.48
48872;BME280;36154;51.674;7.824;2023-07-24T03:10:16;99613.97;;;23.88;52.66
48872;BME280;36154;51.674;7.824;2023-07-24T03:12:42;99607.13;;;23.87;53.40
48872;BME280;36154;51.674;7.824;2023-07-24T03:15:07;99601.91;;;23.87;52.40
48872;BME280;36154;51.674;7.824;2023-07-24T03:17:32;99599.41;;;23.86;52.38
48872;BME280;36154;51.674;7.824;2023-07-24T03:19:59;99594.19;;;23.86;52.70
48872;BME280;36154;51.674;7.824;2023-07-24T03:22:26;99607.19;;;23.86;52.49
48872;BME280;36154;51.674;7.824;2023-07-24T03:24:51;99602.91;;;23.85;52.65
48872;BME280;36154;51.674;7.824;2023-07-24T03:27:17;99597.72;;;23.85;52.69
48872;BME280;36154;51.674;7.824;2023-07-24T03:29:44;99596.03;;;23.84;52.63
48872;BME280;36154;51.674;7.824;2023-07-24T03:32:09;99577.72;;;23.85;52.77
48872;BME280;36154;51.674;7.824;2023-07-24T03:34:35;99571.69;;;23.85;52.34
48872;BME280;36154;51.674;7.824;2023-07-24T03:37:00;99567.31;;;23.85;52.26
48872;BME280;36154;51.674;7.824;2023-07-24T03:39:25;99562.13;;;23.85;52.69
48872;BME280;36154;51.674;7.824;2023-07-24T03:41:51;99544.88;;;23.84;52.68
48872;BME280;36154;51.674;7.824;2023-07-24T03:44:16;99537.88;;;23.85;52.49
48872;BME280;36154;51.674;7.824;2023-07-24T03:46:41;99537.78;;;23.86;52.39
48872;BME280;36154;51.674;7.824;2023-07-24T03:49:06;99547.28;;;23.87;52.18
48872;BME280;36154;51.674;7.824;2023-07-24T03:51:32;99556.94;;;23.85;52.71
48872;BME280;36154;51.674;7.824;2023-07-24T03:53:58;99563.81;;;23.86;52.69
48872;BME280;36154;51.674;7.824;2023-07-24T03:56:23;99566.41;;;23.86;52.13
48872;BME280;36154;51.674;7.824;2023-07-24T03:58:49;99563.81;;;23.86;52.77
48872;BME280;36154;51.674;7.824;2023-07-24T04:01:14;99537.78;;;23.86;52.60
48872;BME280;36154;51.674;7.824;2023-07-24T04:03:39;99519.59;;;23.86;52.75
48872;BME280;36154;51.674;7.824;2023-07-24T04:06:04;99539.66;;;23.84;52.69
48872;BME280;36154;51.674;7.824;2023-07-24T04:08:30;99532.78;;;23.83;52.69
48872;BME280;36154;51.674;7.824;2023-07-24T04:10:55;99530.25;;;23.81;52.25
48872;BME280;36154;51.674;7.824;2023-07-24T04:13:21;99530.25;;;23.81;52.80
48872;BME280;36154;51.674;7.824;2023-07-24T04:15:47;99526.84;;;23.81;52.37
48872;BME280;36154;51.674;7.824;2023-07-24T04:18:12;99526.00;;;23.80;52.85
48872;BME280;36154;51.674;7.824;2023-07-24T04:20:37;99529.44;;;23.81;52.74
48872;BME280;36154;51.674;7.824;2023-07-24T04:23:03;99518.22;;;23.80;52.79
48872;BME280;36154;51.674;7.824;2023-07-24T04:25:28;99523.31;;;23.82;52.49
48872;BME280;36154;51.674;7.824;2023-07-24T04:27:53;99515.50;;;23.82;52.92
48872;BME280;36154;51.674;7.824;2023-07-24T04:30:19;99523.19;;;23.84;52.53
48872;BME280;36154;51.674;7.824;2023-07-24T04:32:44;99524.97;;;23.83;52.53
48872;BME280;36154;51.674;7.824;2023-07-24T04:35:11;99527.56;;;23.83;52.55
48872;BME280;36154;51.674;7.824;2023-07-24T04:37:36;99532.78;;;23.83;52.53
48872;BME280;36154;51.674;7.824;2023-07-24T04:40:01;99532.78;;;23.83;53.00
48872;BME280;36154;51.674;7.824;2023-07-24T04:42:27;99527.56;;;23.83;52.71
48872;BME280;36154;51.674;7.824;2023-07-24T04:44:52;99526.56;;;23.86;52.83
48872;BME280;36154;51.674;7.824;2023-07-24T04:47:17;99527.56;;;23.83;52.99
48872;BME280;36154;51.674;7.824;2023-07-24T04:49:43;99531.84;;;23.84;53.12
48872;BME280;36154;51.674;7.824;2023-07-24T04:52:08;99524.06;;;23.84;52.96
48872;BME280;36154;51.674;7.824;2023-07-24T04:54:33;99537.97;;;23.83;52.87
48872;BME280;36154;51.674;7.824;2023-07-24T04:56:59;99531.94;;;23.83;52.70
48872;BME280;36154;51.674;7.824;2023-07-24T04:59:24;99532.03;;;23.81;53.24
48872;BME280;36154;51.674;7.824;2023-07-24T05:01:49;99522.56;;;23.80;53.07
48872;BME280;36154;51.674;7.824;2023-07-24T05:04:15;99521.72;;;23.79;53.05
48872;BME280;36154;51.674;7.824;2023-07-24T05:06:40;99523.41;;;23.80;52.88
48872;BME280;36154;51.674;7.824;2023-07-24T05:09:05;99513.00;;;23.80;52.91
48872;BME280;36154;51.674;7.824;2023-07-24T05:11:31;99517.34;;;23.80;53.42
48872;BME280;36154;51.674;7.824;2023-07-24T05:13:56;99522.56;;;23.80;53.37
48872;BME280;36154;51.674;7.824;2023-07-24T05:16:21;99522.75;;;23.77;53.29
48872;BME280;36154;51.674;7.824;2023-07-24T05:18:46;99527.03;;;23.78;53.97
48872;BME280;36154;51.674;7.824;2023-07-24T05:21:12;99532.31;;;23.76;54.10
48872;BME280;36154;51.674;7.824;2023-07-24T05:23:37;99537.59;;;23.75;53.98
48872;BME280;36154;51.674;7.824;2023-07-24T05:26:03;99538.53;;;23.74;54.35
48872;BME280;36154;51.674;7.824;2023-07-24T05:28:30;99531.56;;;23.74;54.37
48872;BME280;36154;51.674;7.824;2023-07-24T05:31:00;99531.47;;;23.76;53.94
48872;BME280;36154;51.674;7.824;2023-07-24T05:33:26;99533.16;;;23.77;53.76
48872;BME280;36154;51.674;7.824;2023-07-24T05:35:51;99533.16;;;23.77;54.05
48872;BME280;36154;51.674;7.824;2023-07-24T05:38:22;99532.31;;;23.76;53.93
48872;BME280;36154;51.674;7.824;2023-07-24T05:40:54;99540.03;;;23.78;54.13
48872;BME280;36154;51.674;7.824;2023-07-24T05:43:19;99538.38;;;23.77;54.14
48872;BME280;36154;51.674;7.824;2023-07-24T05:45:44;99544.41;;;23.77;54.36
48872;BME280;36154;51.674;7.824;2023-07-24T05:48:12;99550.44;;;23.78;54.02
48872;BME280;36154;51.674;7.824;2023-07-24T05:50:37;99556.56;;;23.77;54.28
48872;BME280;36154;51.674;7.824;2023-07-24T05:53:02;99551.47;;;23.75;54.33
48872;BME280;36154;51.674;7.824;2023-07-24T05:55:28;99556.66;;;23.75;53.99
48872;BME280;36154;51.674;7.824;2023-07-24T05:57:53;99554.97;;;23.74;54.25
48872;BME280;36154;51.674;7.824;2023-07-24T06:00:18;99558.50;;;23.73;54.13
48872;BME280;36154;51.674;7.824;2023-07-24T06:02:44;99548.94;;;23.74;54.36
48872;BME280;36154;51.674;7.824;2023-07-24T06:05:10;99550.59;;;23.75;54.46
48872;BME280;36154;51.674;7.824;2023-07-24T06:07:35;99567.97;;;23.74;54.62
48872;BME280;36154;51.674;7.824;2023-07-24T06:10:01;99561.00;;;23.75;54.71
48872;BME280;36154;51.674;7.824;2023-07-24T06:12:26;99554.31;;;23.71;54.61
48872;BME280;36154;51.674;7.824;2023-07-24T06:14:51;99567.06;;;23.75;54.70
48872;BME280;36154;51.674;7.824;2023-07-24T06:17:17;99568.81;;;23.75;54.54
48872;BME280;36154;51.674;7.824;2023-07-24T06:19:42;99574.00;;;23.75;54.19
48872;BME280;36154;51.674;7.824;2023-07-24T06:22:07;99572.34;;;23.74;54.75
48872;BME280;36154;51.674;7.824;2023-07-24T06:24:33;99571.41;;;23.75;54.67
48872;BME280;36154;51.674;7.824;2023-07-24T06:26:58;99572.34;;;23.74;54.39
48872;BME280;36154;51.674;7.824;2023-07-24T06:29:23;99568.06;;;23.73;54.85
48872;BME280;36154;51.674;7.824;2023-07-24T06:31:48;99580.16;;;23.74;54.97
48872;BME280;36154;51.674;7.824;2023-07-24T06:34:14;99574.97;;;23.74;54.88
48872;BME280;36154;51.674;7.824;2023-07-24T06:36:40;99568.91;;;23.73;54.88
48872;BME280;36154;51.674;7.824;2023-07-24T06:39:05;99573.28;;;23.73;54.82
48872;BME280;36154;51.674;7.824;2023-07-24T06:41:30;99574.09;;;23.73;54.99
48872;BME280;36154;51.674;7.824;2023-07-24T06:43:56;99574.09;;;23.73;54.58
48872;BME280;36154;51.674;7.824;2023-07-24T06:46:21;99574.00;;;23.75;54.78
48872;BME280;36154;51.674;7.824;2023-07-24T06:48:46;99569.66;;;23.75;54.67
48872;BME280;36154;51.674;7.824;2023-07-24T06:51:12;99573.19;;;23.74;54.95
48872;BME280;36154;51.674;7.824;2023-07-24T06:53:37;99574.00;;;23.75;54.66
48872;BME280;36154;51.674;7.824;2023-07-24T06:56:02;99580.16;;;23.74;54.77
48872;BME280;36154;51.674;7.824;2023-07-24T06:58:28;99571.41;;;23.75;54.79
48872;BME280;36154;51.674;7.824;2023-07-24T07:00:53;99575.78;;;23.74;55.14
48872;BME280;36154;51.674;7.824;2023-07-24T07:03:18;99570.59;;;23.74;55.13
48872;BME280;36154;51.674;7.824;2023-07-24T07:05:43;99574.09;;;23.73;54.93
48872;BME280;36154;51.674;7.824;2023-07-24T07:08:09;99575.88;;;23.73;55.24
48872;BME280;36154;51.674;7.824;2023-07-24T07:10:34;99571.59;;;23.72;54.97
48872;BME280;36154;51.674;7.824;2023-07-24T07:12:59;99571.59;;;23.72;55.46
48872;BME280;36154;51.674;7.824;2023-07-24T07:15:24;99566.38;;;23.72;55.02
48872;BME280;36154;51.674;7.824;2023-07-24T07:17:50;99564.66;;;23.72;54.98
48872;BME280;36154;51.674;7.824;2023-07-24T07:20:15;99550.78;;;23.72;55.00
48872;BME280;36154;51.674;7.824;2023-07-24T07:22:43;99549.88;;;23.73;55.21
48872;BME280;36154;51.674;7.824;2023-07-24T07:25:08;99548.09;;;23.73;55.12
48872;BME280;36154;51.674;7.824;2023-07-24T07:27:33;99547.25;;;23.73;54.97
48872;BME280;36154;51.674;7.824;2023-07-24T07:29:59;99552.47;;;23.73;55.04
48872;BME280;36154;51.674;7.824;2023-07-24T07:32:24;99546.44;;;23.72;55.23
48872;BME280;36154;51.674;7.824;2023-07-24T07:34:50;99553.28;;;23.73;55.15
48872;BME280;36154;51.674;7.824;2023-07-24T07:37:15;99548.94;;;23.74;55.06
48872;BME280;36154;51.674;7.824;2023-07-24T07:39:40;99553.19;;;23.75;55.45
48872;BME280;36154;51.674;7.824;2023-07-24T07:42:06;99532.41;;;23.75;55.42
48872;BME280;36154;51.674;7.824;2023-07-24T07:44:31;99550.59;;;23.75;55.28
48872;BME280;36154;51.674;7.824;2023-07-24T07:46:56;99549.69;;;23.76;55.06
48872;BME280;36154;51.674;7.824;2023-07-24T07:49:22;99555.81;;;23.75;54.94
48872;BME280;36154;51.674;7.824;2023-07-24T07:51:47;99547.25;;;23.73;55.33
48872;BME280;36154;51.674;7.824;2023-07-24T07:54:12;99542.06;;;23.73;54.75
48872;BME280;36154;51.674;7.824;2023-07-24T07:56:38;99534.16;;;23.74;55.10
48872;BME280;36154;51.674;7.824;2023-07-24T07:59:03;99535.00;;;23.75;54.91
48872;BME280;36154;51.674;7.824;2023-07-24T08:01:29;99531.47;;;23.76;55.04
48872;BME280;36154;51.674;7.824;2023-07-24T08:03:55;99541.88;;;23.76;54.71
48872;BME280;36154;51.674;7.824;2023-07-24T08:06:20;99531.56;;;23.74;54.80
48872;BME280;36154;51.674;7.824;2023-07-24T08:08:47;99526.63;;;23.70;54.73
48872;BME280;36154;51.674;7.824;2023-07-24T08:11:12;99525.53;;;23.74;54.62
48872;BME280;36154;51.674;7.824;2023-07-24T08:13:37;99528.16;;;23.74;54.74
48872;BME280;36154;51.674;7.824;2023-07-24T08:16:02;99536.88;;;23.73;54.30
48872;BME280;36154;51.674;7.824;2023-07-24T08:18:34;99529.97;;;23.72;54.37
48872;BME280;36154;51.674;7.824;2023-07-24T08:20:59;99542.97;;;23.72;54.57
48872;BME280;36154;51.674;7.824;2023-07-24T08:23:25;99537.78;;;23.72;54.40
48872;BME280;36154;51.674;7.824;2023-07-24T08:25:53;99533.53;;;23.71;54.44
48872;BME280;36154;51.674;7.824;2023-07-24T08:28:19;99539.56;;;23.71;54.17
48872;BME280;36154;51.674;7.824;2023-07-24T08:30:45;99534.34;;;23.71;54.24
48872;BME280;36154;51.674;7.824;2023-07-24T08:33:12;99534.34;;;23.71;54.26
48872;BME280;36154;51.674;7.824;2023-07-24T08:35:37;99538.72;;;23.71;54.38
48872;BME280;36154;51.674;7.824;2023-07-24T08:38:02;99545.78;;;23.69;54.00
48872;BME280;36154;51.674;7.824;2023-07-24T08:40:28;99538.81;;;23.69;54.08
48872;BME280;36154;51.674;7.824;2023-07-24T08:42:54;99531.84;;;23.70;53.68
48872;BME280;36154;51.674;7.824;2023-07-24T08:45:20;99532.78;;;23.69;53.98
48872;BME280;36154;51.674;7.824;2023-07-24T08:47:45;99532.78;;;23.69;53.97
48872;BME280;36154;51.674;7.824;2023-07-24T08:50:10;99512.91;;;23.68;53.85
48872;BME280;36154;51.674;7.824;2023-07-24T08:52:38;99522.47;;;23.67;54.07
48872;BME280;36154;51.674;7.824;2023-07-24T08:55:05;99512.91;;;23.68;53.84
48872;BME280;36154;51.674;7.824;2023-07-24T08:57:30;99523.31;;;23.68;53.75
48872;BME280;36154;51.674;7.824;2023-07-24T08:59:56;99512.06;;;23.67;54.05
48872;BME280;36154;51.674;7.824;2023-07-24T09:02:21;99523.31;;;23.68;53.69
48872;BME280;36154;51.674;7.824;2023-07-24T09:04:46;99524.03;;;23.70;53.83
48872;BME280;36154;51.674;7.824;2023-07-24T09:07:12;99523.13;;;23.71;53.63
48872;BME280;36154;51.674;7.824;2023-07-24T09:09:39;99520.44;;;23.72;53.53
48872;BME280;36154;51.674;7.824;2023-07-24T09:12:05;99524.78;;;23.72;53.66
48872;BME280;36154;51.674;7.824;2023-07-24T09:14:30;99521.25;;;23.73;53.79
48872;BME280;36154;51.674;7.824;2023-07-24T09:17:09;99516.16;;;23.71;53.83
48872;BME280;36154;51.674;7.824;2023-07-24T09:19:35;99502.22;;;23.72;53.87
48872;BME280;36154;51.674;7.824;2023-07-24T09:22:11;99513.47;;;23.73;53.41
48872;BME280;36154;51.674;7.824;2023-07-24T09:24:38;99521.25;;;23.73;53.56
48872;BME280;36154;51.674;7.824;2023-07-24T09:27:05;99522.94;;;23.74;53.15
48872;BME280;36154;51.674;7.824;2023-07-24T09:29:33;99529.78;;;23.75;53.20
48872;BME280;36154;51.674;7.824;2023-07-24T09:31:59;99538.53;;;23.74;53.37
48872;BME280;36154;51.674;7.824;2023-07-24T09:34:24;99537.69;;;23.73;53.35
48872;BME280;36154;51.674;7.824;2023-07-24T09:36:51;99542.88;;;23.73;53.96
48872;BME280;36154;51.674;7.824;2023-07-24T09:39:25;99535.19;;;23.72;54.03
48872;BME280;36154;51.674;7.824;2023-07-24T09:41:51;99537.03;;;23.70;54.28
48872;BME280;36154;51.674;7.824;2023-07-24T09:44:17;99538.91;;;23.68;54.33
48872;BME280;36154;51.674;7.824;2023-07-24T09:46:43;99524.31;;;23.65;54.29
48872;BME280;36154;51.674;7.824;2023-07-24T09:49:09;99527.03;;;23.63;54.95
48872;BME280;36154;51.674;7.824;2023-07-24T09:51:34;99524.69;;;23.59;54.85
48872;BME280;36154;51.674;7.824;2023-07-24T09:54:06;99514.13;;;23.62;55.39
48872;BME280;36154;51.674;7.824;2023-07-24T09:56:37;99519.41;;;23.60;55.04
48872;BME280;36154;51.674;7.824;2023-07-24T09:59:03;99505.63;;;23.58;55.30
48872;BME280;36154;51.674;7.824;2023-07-24T10:01:31;99511.78;;;23.57;55.74
48872;BME280;36154;51.674;7.824;2023-07-24T10:03:57;99521.34;;;23.57;55.95
48872;BME280;36154;51.674;7.824;2023-07-24T10:06:24;99513.69;;;23.54;55.79
48872;BME280;36154;51.674;7.824;2023-07-24T10:08:51;99516.25;;;23.55;55.89
48872;BME280;36154;51.674;7.824;2023-07-24T10:11:17;99509.59;;;23.50;55.78
48872;BME280;36154;51.674;7.824;2023-07-24T10:13:44;99511.09;;;23.54;55.92
48872;BME280;36154;51.674;7.824;2023-07-24T10:16:10;99506.72;;;23.54;55.74
48872;BME280;36154;51.674;7.824;2023-07-24T10:18:43;99506.56;;;23.57;55.74
48872;BME280;36154;51.674;7.824;2023-07-24T10:21:09;99502.22;;;23.58;55.79
48872;BME280;36154;51.674;7.824;2023-07-24T10:23:36;99497.00;;;23.58;56.30
48872;BME280;36154;51.674;7.824;2023-07-24T10:26:05;99493.59;;;23.57;55.87
48872;BME280;36154;51.674;7.824;2023-07-24T10:28:32;99499.53;;;23.59;56.22
48872;BME280;36154;51.674;7.824;2023-07-24T10:30:58;99496.00;;;23.60;56.05
48872;BME280;36154;51.674;7.824;2023-07-24T10:33:23;99492.44;;;23.61;56.06
48872;BME280;36154;51.674;7.824;2023-07-24T10:35:53;99482.06;;;23.61;56.16
48872;BME280;36154;51.674;7.824;2023-07-24T10:38:18;99478.53;;;23.62;55.80
48872;BME280;36154;51.674;7.824;2023-07-24T10:40:46;99482.69;;;23.65;55.93
48872;BME280;36154;51.674;7.824;2023-07-24T10:43:13;99476.50;;;23.68;55.86
48872;BME280;36154;51.674;7.824;2023-07-24T10:45:45;99491.19;;;23.69;55.84
48872;BME280;36154;51.674;7.824;2023-07-24T10:48:11;99500.63;;;23.70;56.21
48872;BME280;36154;51.674;7.824;2023-07-24T10:50:42;99491.09;;;23.70;56.30
48872;BME280;36154;51.674;7.824;2023-07-24T10:53:14;99487.53;;;23.71;55.98
48872;BME280;36154;51.674;7.824;2023-07-24T10:55:41;99490.78;;;23.75;56.31
48872;BME280;36154;51.674;7.824;2023-07-24T10:58:07;99499.34;;;23.77;56.10
48872;BME280;36154;51.674;7.824;2023-07-24T11:00:33;99502.69;;;23.79;55.77
48872;BME280;36154;51.674;7.824;2023-07-24T11:02:58;99496.75;;;23.77;55.34
48872;BME280;36154;51.674;7.824;2023-07-24T11:05:24;99501.00;;;23.78;55.42
48872;BME280;36154;51.674;7.824;2023-07-24T11:07:50;99498.41;;;23.78;55.71
48872;BME280;36154;51.674;7.824;2023-07-24T11:10:17;99492.47;;;23.76;56.18
48872;BME280;36154;51.674;7.824;2023-07-24T11:12:42;99499.34;;;23.77;56.24
48872;BME280;36154;51.674;7.824;2023-07-24T11:15:08;99499.53;;;23.74;55.88
48872;BME280;36154;51.674;7.824;2023-07-24T11:17:34;99489.31;;;23.71;55.92
48872;BME280;36154;51.674;7.824;2023-07-24T11:20:11;99479.84;;;23.70;56.01
48872;BME280;36154;51.674;7.824;2023-07-24T11:22:41;99480.00;;;23.67;55.74
48872;BME280;36154;51.674;7.824;2023-07-24T11:25:07;99471.66;;;23.61;55.51
48872;BME280;36154;51.674;7.824;2023-07-24T11:27:38;99478.91;;;23.56;55.70
48872;BME280;36154;51.674;7.824;2023-07-24T11:30:03;99474.06;;;23.50;55.85
48872;BME280;36154;51.674;7.824;2023-07-24T11:32:29;99469.84;;;23.48;55.50
48872;BME280;36154;51.674;7.824;2023-07-24T11:34:54;99463.84;;;23.47;55.66
48872;BME280;36154;51.674;7.824;2023-07-24T11:37:20;99456.94;;;23.46;55.08
48872;BME280;36154;51.674;7.824;2023-07-24T11:39:58;99451.94;;;23.43;55.24
48872;BME280;36154;51.674;7.824;2023-07-24T11:42:27;99448.41;;;23.44;54.89
48872;BME280;36154;51.674;7.824;2023-07-24T11:44:53;99459.72;;;23.43;55.03
48872;BME280;36154;51.674;7.824;2023-07-24T11:47:19;99460.69;;;23.42;54.75
48872;BME280;36154;51.674;7.824;2023-07-24T11:49:44;99454.72;;;23.40;54.88
48872;BME280;36154;51.674;7.824;2023-07-24T11:52:13;99454.72;;;23.40;54.53
48872;BME280;36154;51.674;7.824;2023-07-24T11:54:39;99452.31;;;23.37;54.50
48872;BME280;36154;51.674;7.824;2023-07-24T11:57:16;99441.16;;;23.35;54.20
48872;BME280;36154;51.674;7.824;2023-07-24T11:59:42;99447.31;;;23.34;54.30
48872;BME280;36154;51.674;7.824;2023-07-24T12:02:10;99437.91;;;23.31;54.61
48872;BME280;36154;51.674;7.824;2023-07-24T12:04:36;99434.41;;;23.32;54.40
48872;BME280;36154;51.674;7.824;2023-07-24T12:07:01;99437.09;;;23.31;54.63
48872;BME280;36154;51.674;7.824;2023-07-24T12:09:30;99451.75;;;23.32;54.73
48872;BME280;36154;51.674;7.824;2023-07-24T12:11:58;99455.19;;;23.32;55.03
48872;BME280;36154;51.674;7.824;2023-07-24T12:14:23;99459.56;;;23.32;54.41
48872;BME280;36154;51.674;7.824;2023-07-24T12:16:49;99456.19;;;23.30;55.00
48872;BME280;36154;51.674;7.824;2023-07-24T12:19:14;99455.38;;;23.29;55.15
48872;BME280;36154;51.674;7.824;2023-07-24T12:21:39;99453.03;;;23.24;55.66
48872;BME280;36154;51.674;7.824;2023-07-24T12:24:05;99445.31;;;23.23;55.82
48872;BME280;36154;51.674;7.824;2023-07-24T12:26:30;99446.34;;;23.20;55.62
48872;BME280;36154;51.674;7.824;2023-07-24T12:28:55;99458.59;;;23.18;55.76
48872;BME280;36154;51.674;7.824;2023-07-24T12:31:21;99466.50;;;23.17;56.19
48872;BME280;36154;51.674;7.824;2023-07-24T12:33:46;99476.03;;;23.16;56.43
48872;BME280;36154;51.674;7.824;2023-07-24T12:36:12;99498.66;;;23.14;56.29
48872;BME280;36154;51.674;7.824;2023-07-24T12:38:37;99498.66;;;23.14;56.79
48872;BME280;36154;51.674;7.824;2023-07-24T12:41:02;99509.88;;;23.15;56.44
48872;BME280;36154;51.674;7.824;2023-07-24T12:43:27;99517.78;;;23.13;57.11
48872;BME280;36154;51.674;7.824;2023-07-24T12:45:53;99543.09;;;23.10;57.11
48872;BME280;36154;51.674;7.824;2023-07-24T12:48:18;99530.28;;;23.06;57.79
48872;BME280;36154;51.674;7.824;2023-07-24T12:50:43;99516.63;;;23.03;57.56
48872;BME280;36154;51.674;7.824;2023-07-24T12:53:09;99517.56;;;23.02;57.50
48872;BME280;36154;51.674;7.824;2023-07-24T12:55:34;99520.50;;;22.96;56.98
48872;BME280;36154;51.674;7.824;2023-07-24T12:57:59;99520.75;;;22.91;56.43